createdAt,value
2022-11-05T00:01:31.684Z,32.19
2022-11-05T00:03:57.951Z,32.11
2022-11-05T00:06:25.194Z,32.14
2022-11-05T00:08:50.608Z,32.27
2022-11-05T00:11:18.470Z,32.18
2022-11-05T00:13:43.296Z,32.23
2022-11-05T00:16:09.644Z,32.16
2022-11-05T00:18:35.973Z,32.17
2022-11-05T00:21:02.348Z,31.88
2022-11-05T00:23:28.684Z,31.72
2022-11-05T00:25:55.053Z,32.29
2022-11-05T00:28:21.395Z,32.34
2022-11-05T00:30:47.756Z,32.27
2022-11-05T00:33:14.093Z,32.38
2022-11-05T00:35:40.434Z,32.27
2022-11-05T00:38:06.764Z,32.35
2022-11-05T00:40:33.108Z,32.36
2022-11-05T00:42:59.443Z,32.37
2022-11-05T00:45:27.009Z,32.31
2022-11-05T00:47:52.142Z,32.32
2022-11-05T00:50:18.502Z,32.33
2022-11-05T00:52:44.864Z,32.42
2022-11-05T00:55:11.245Z,32.48
2022-11-05T00:57:37.584Z,32.62
2022-11-05T01:00:03.926Z,32.42
2022-11-05T01:02:30.416Z,32.43
2022-11-05T01:04:56.643Z,32.37
2022-11-05T01:07:22.979Z,32.37
2022-11-05T01:09:49.318Z,32.46
2022-11-05T01:12:15.690Z,32.46
2022-11-05T01:14:42.029Z,32.49
2022-11-05T01:17:08.372Z,32.48
2022-11-05T01:19:34.712Z,32.52
2022-11-05T01:22:01.050Z,32.49
2022-11-05T01:24:27.406Z,32.52
2022-11-05T01:26:53.751Z,32.56
2022-11-05T01:29:20.084Z,32.62
2022-11-05T01:31:46.435Z,32.65
2022-11-05T01:34:12.805Z,32.67
2022-11-05T01:36:39.140Z,32.68
2022-11-05T01:39:05.486Z,32.65
2022-11-05T01:41:31.855Z,32.74
2022-11-05T01:43:58.195Z,32.75
2022-11-05T01:46:24.532Z,32.75
2022-11-05T01:48:50.899Z,32.76
2022-11-05T01:51:17.211Z,32.71
2022-11-05T01:53:43.585Z,32.72
2022-11-05T01:56:09.917Z,32.89
2022-11-05T01:58:36.261Z,32.77
2022-11-05T02:01:02.662Z,32.73
2022-11-05T02:03:29.030Z,32.75
2022-11-05T02:05:55.361Z,32.72
2022-11-05T02:08:21.732Z,32.75
2022-11-05T02:10:48.060Z,32.79
2022-11-05T02:13:14.436Z,32.83
2022-11-05T02:15:40.769Z,32.85
2022-11-05T02:18:07.146Z,32.85
2022-11-05T02:20:33.486Z,32.78
2022-11-05T02:22:59.830Z,32.86
2022-11-05T02:25:26.210Z,32.88
2022-11-05T02:27:52.586Z,32.88
2022-11-05T02:30:19.024Z,32.90
2022-11-05T02:32:45.453Z,32.86
2022-11-05T02:35:12.151Z,32.95
2022-11-05T02:37:38.580Z,32.93
2022-11-05T02:40:05.024Z,32.85
2022-11-05T02:42:31.419Z,32.78
2022-11-05T02:44:57.858Z,32.73
2022-11-05T02:47:24.265Z,32.76
2022-11-05T02:49:50.695Z,32.77
2022-11-05T02:52:17.087Z,32.80
2022-11-05T02:54:43.534Z,32.78
2022-11-05T02:57:09.862Z,32.83
2022-11-05T02:59:36.194Z,32.79
2022-11-05T03:02:02.681Z,32.79
2022-11-05T03:04:28.924Z,32.81
2022-11-05T03:06:55.270Z,32.85
2022-11-05T03:09:21.621Z,32.87
2022-11-05T03:11:47.963Z,32.94
2022-11-05T03:14:14.333Z,32.84
2022-11-05T03:16:40.660Z,32.87
2022-11-05T03:19:07.026Z,32.87
2022-11-05T03:21:33.400Z,32.84
2022-11-05T03:23:59.739Z,32.87
2022-11-05T03:26:26.178Z,32.88
2022-11-05T03:28:52.531Z,32.85
2022-11-05T03:31:18.886Z,32.87
2022-11-05T03:33:45.229Z,32.89
2022-11-05T03:36:11.590Z,32.89
2022-11-05T03:38:37.929Z,32.90
2022-11-05T03:41:04.280Z,32.88
2022-11-05T03:43:30.619Z,32.89
2022-11-05T03:45:56.968Z,32.94
2022-11-05T03:48:23.386Z,32.92
2022-11-05T03:50:49.657Z,32.93
2022-11-05T03:53:16.019Z,32.95
2022-11-05T03:55:42.352Z,32.98
2022-11-05T03:58:08.728Z,32.97
2022-11-05T04:00:35.061Z,32.95
2022-11-05T04:03:01.455Z,33.01
2022-11-05T04:05:27.775Z,33.00
2022-11-05T04:07:54.112Z,33.04
2022-11-05T04:10:20.459Z,33.02
2022-11-05T04:12:46.833Z,33.01
2022-11-05T04:15:13.171Z,33.04
2022-11-05T04:17:39.532Z,33.07
2022-11-05T04:20:05.872Z,33.10
2022-11-05T04:22:32.202Z,33.08
2022-11-05T04:24:58.551Z,33.10
2022-11-05T04:27:24.893Z,33.13
2022-11-05T04:29:52.556Z,33.14
2022-11-05T04:32:17.608Z,33.16
2022-11-05T04:34:43.988Z,33.21
2022-11-05T04:37:10.353Z,33.20
2022-11-05T04:39:36.721Z,33.19
2022-11-05T04:42:03.059Z,33.17
2022-11-05T04:44:29.427Z,33.19
2022-11-05T04:46:55.759Z,33.17
2022-11-05T04:49:22.235Z,33.20
2022-11-05T04:51:48.555Z,33.23
2022-11-05T04:54:14.943Z,33.29
2022-11-05T04:56:41.280Z,33.23
2022-11-05T04:59:07.613Z,33.18
2022-11-05T05:01:34.094Z,33.26
2022-11-05T05:04:00.321Z,33.21
2022-11-05T05:06:26.662Z,33.24
2022-11-05T05:08:53.009Z,33.25
2022-11-05T05:11:19.379Z,33.23
2022-11-05T05:13:45.767Z,33.23
2022-11-05T05:16:12.094Z,33.24
2022-11-05T05:18:42.203Z,33.25
2022-11-05T05:21:04.780Z,33.21
2022-11-05T05:23:31.137Z,33.23
2022-11-05T05:25:57.463Z,33.27
2022-11-05T05:28:24.091Z,33.30
2022-11-05T05:30:53.599Z,33.30
2022-11-05T05:33:16.789Z,33.28
2022-11-05T05:35:43.128Z,33.32
2022-11-05T05:38:09.479Z,33.30
2022-11-05T05:40:35.813Z,33.33
2022-11-05T05:43:02.221Z,33.30
2022-11-05T05:45:28.596Z,33.33
2022-11-05T05:47:54.964Z,33.32
2022-11-05T05:50:21.333Z,33.34
2022-11-05T05:52:47.740Z,33.35
2022-11-05T05:55:14.052Z,33.36
2022-11-05T05:57:40.418Z,33.36
2022-11-05T06:00:06.759Z,33.34
2022-11-05T06:02:33.229Z,33.32
2022-11-05T06:05:00.663Z,33.29
2022-11-05T06:07:25.793Z,33.14
2022-11-05T06:09:52.139Z,33.08
2022-11-05T06:12:18.467Z,33.01
2022-11-05T06:14:44.822Z,32.99
2022-11-05T06:17:11.162Z,32.97
2022-11-05T06:19:37.510Z,32.91
2022-11-05T06:22:03.852Z,32.94
2022-11-05T06:24:30.189Z,32.99
2022-11-05T06:26:56.563Z,32.94
2022-11-05T06:29:22.909Z,32.96
2022-11-05T06:31:49.255Z,32.96
2022-11-05T06:34:15.589Z,32.94
2022-11-05T06:36:41.932Z,32.86
2022-11-05T06:39:08.366Z,32.85
2022-11-05T06:41:45.679Z,32.79
2022-11-05T06:44:01.015Z,32.77
2022-11-05T06:46:27.384Z,32.75
2022-11-05T06:48:53.760Z,32.72
2022-11-05T06:51:20.192Z,32.63
2022-11-05T06:53:46.549Z,32.61
2022-11-05T06:56:12.923Z,32.56
2022-11-05T06:58:39.263Z,32.49
2022-11-05T07:01:05.647Z,32.36
2022-11-05T07:03:31.976Z,32.39
2022-11-05T07:05:58.314Z,32.36
2022-11-05T07:08:24.690Z,32.33
2022-11-05T07:10:51.030Z,32.30
2022-11-05T07:13:17.473Z,32.30
2022-11-05T07:15:43.729Z,32.31
2022-11-05T07:18:10.076Z,32.31
2022-11-05T07:20:36.446Z,32.30
2022-11-05T07:23:03.771Z,32.26
2022-11-05T07:25:29.152Z,32.23
2022-11-05T07:27:55.499Z,32.23
2022-11-05T07:30:21.889Z,32.25
2022-11-05T07:32:48.229Z,32.20
2022-11-05T07:35:14.595Z,32.18
2022-11-05T07:37:40.942Z,32.20
2022-11-05T07:40:07.279Z,32.13
2022-11-05T07:42:33.657Z,32.17
2022-11-05T07:44:59.988Z,32.09
2022-11-05T07:47:26.338Z,32.13
2022-11-05T07:49:52.684Z,32.15
2022-11-05T07:52:19.052Z,32.07
2022-11-05T07:54:46.478Z,32.02
2022-11-05T07:57:11.725Z,32.11
2022-11-05T07:59:38.071Z,32.13
2022-11-05T08:02:04.552Z,32.11
2022-11-05T08:04:30.777Z,32.11
2022-11-05T08:06:57.136Z,32.02
2022-11-05T08:09:23.481Z,32.04
2022-11-05T08:11:52.968Z,32.04
2022-11-05T08:14:16.222Z,31.97
2022-11-05T08:16:42.537Z,31.94
2022-11-05T08:19:08.875Z,31.85
2022-11-05T08:21:35.225Z,31.82
2022-11-05T08:34:33.604Z,31.87
2022-11-05T08:37:00.078Z,31.85
2022-11-05T08:39:26.960Z,31.86
2022-11-05T08:41:53.370Z,31.98
2022-11-05T08:44:19.826Z,31.91
2022-11-05T08:46:46.232Z,31.90
2022-11-05T08:49:17.856Z,31.85
2022-11-05T08:51:44.360Z,31.85
2022-11-05T08:54:10.798Z,31.78
2022-11-05T08:56:37.260Z,31.76
2022-11-05T08:59:03.678Z,31.76
2022-11-05T09:01:30.301Z,31.74
2022-11-05T09:03:56.576Z,31.65
2022-11-05T09:06:23.056Z,31.65
2022-11-05T09:08:49.658Z,31.62
2022-11-05T09:11:16.088Z,31.63
2022-11-05T09:13:42.590Z,31.61
2022-11-05T09:16:11.405Z,31.49
2022-11-05T09:18:45.258Z,31.35
2022-11-05T09:21:12.216Z,31.39
2022-11-05T09:23:51.855Z,31.49
2022-11-05T09:26:16.135Z,31.31
2022-11-05T09:28:42.674Z,31.27
2022-11-05T09:31:09.502Z,31.27
2022-11-05T09:33:36.631Z,31.32
2022-11-05T09:36:04.776Z,31.27
2022-11-05T09:38:31.771Z,31.27
2022-11-05T09:40:58.716Z,31.29
2022-11-05T09:43:31.221Z,31.28
2022-11-05T09:45:51.580Z,31.17
2022-11-05T09:48:21.208Z,31.07
2022-11-05T09:50:47.792Z,31.13
2022-11-05T09:53:14.774Z,31.11
2022-11-05T09:55:43.052Z,31.08
2022-11-05T09:58:10.507Z,31.08
2022-11-05T10:00:39.459Z,31.04
2022-11-05T10:03:06.445Z,31.05
2022-11-05T10:05:32.991Z,30.94
2022-11-05T10:08:00.133Z,30.92
2022-11-05T10:10:28.101Z,30.90
2022-11-05T10:12:55.356Z,30.91
2022-11-05T10:15:22.313Z,30.88
2022-11-05T10:17:49.428Z,30.80
2022-11-05T10:20:16.165Z,30.75
2022-11-05T10:22:49.670Z,30.73
2022-11-05T10:25:15.787Z,30.72
2022-11-05T10:30:27.716Z,30.62
2022-11-05T10:32:54.092Z,30.61
2022-11-05T10:35:20.523Z,30.54
2022-11-05T10:37:46.974Z,30.53
2022-11-05T10:40:13.430Z,30.50
2022-11-05T10:42:39.846Z,30.49
2022-11-05T10:45:06.683Z,30.39
2022-11-05T10:47:33.376Z,30.39
2022-11-05T10:49:59.780Z,30.41
2022-11-05T10:52:26.706Z,30.35
2022-11-05T10:54:53.199Z,30.28
2022-11-05T10:57:19.621Z,30.17
2022-11-05T10:59:46.069Z,30.14
2022-11-05T11:02:12.523Z,30.08
2022-11-05T11:04:38.940Z,30.05
2022-11-05T11:07:05.365Z,30.01
2022-11-05T11:09:32.306Z,29.88
2022-11-05T11:11:58.759Z,29.85
2022-11-05T11:14:25.167Z,29.86
2022-11-05T11:16:53.364Z,29.84
2022-11-05T11:19:21.162Z,29.82
2022-11-05T11:21:50.959Z,29.79
2022-11-05T11:24:17.614Z,29.70
2022-11-05T11:26:44.606Z,29.70
2022-11-05T11:29:11.107Z,29.68
2022-11-05T11:31:37.580Z,29.64
2022-11-05T11:34:04.016Z,29.61
2022-11-05T11:36:30.467Z,29.62
2022-11-05T11:39:00.730Z,29.56
2022-11-05T11:41:27.171Z,29.53
2022-11-05T11:43:53.580Z,29.55
2022-11-05T11:46:20.385Z,29.51
2022-11-05T11:48:46.832Z,29.46
2022-11-05T11:51:15.598Z,29.49
2022-11-05T11:53:42.024Z,29.47
2022-11-05T11:56:08.489Z,29.43
2022-11-05T11:58:36.335Z,29.42
2022-11-05T12:03:48.753Z,29.33
2022-11-05T12:06:19.356Z,29.34
2022-11-05T12:08:47.032Z,29.24
2022-11-05T12:11:12.558Z,29.31
2022-11-05T12:13:39.032Z,29.24
2022-11-05T12:16:06.193Z,29.27
2022-11-05T12:18:32.820Z,29.22
2022-11-05T12:21:01.174Z,29.30
2022-11-05T12:23:40.403Z,29.27
2022-11-05T12:26:05.685Z,29.25
2022-11-05T12:28:57.739Z,29.21
2022-11-05T12:31:07.844Z,29.23
2022-11-05T12:33:32.256Z,29.18
2022-11-05T12:36:06.380Z,29.21
2022-11-05T12:38:31.692Z,29.24
2022-11-05T12:40:58.532Z,29.07
2022-11-05T12:43:25.069Z,29.15
2022-11-05T12:45:52.322Z,29.08
2022-11-05T12:48:24.691Z,29.21
2022-11-05T12:50:46.158Z,29.06
2022-11-05T12:53:12.871Z,29.12
2022-11-05T12:55:47.070Z,29.08
2022-11-05T12:58:09.505Z,29.17
2022-11-05T13:00:37.170Z,29.09
2022-11-05T13:03:04.830Z,29.06
2022-11-05T13:05:33.761Z,29.05
2022-11-05T13:07:58.909Z,29.05
2022-11-05T13:10:25.367Z,29.08
2022-11-05T13:12:52.870Z,29.11
2022-11-05T13:15:19.674Z,29.10
2022-11-05T13:17:48.142Z,28.97
2022-11-05T13:23:01.115Z,29.03
2022-11-05T13:25:32.340Z,29.06
2022-11-05T13:28:06.567Z,29.02
2022-11-05T13:30:33.036Z,28.97
2022-11-05T13:32:59.579Z,28.98
2022-11-05T13:35:26.012Z,29.05
2022-11-05T13:37:52.478Z,28.92
2022-11-05T13:40:18.896Z,28.89
2022-11-05T13:42:45.368Z,28.97
2022-11-05T13:45:12.072Z,29.02
2022-11-05T13:47:38.593Z,29.04
2022-11-05T13:50:05.053Z,29.02
2022-11-05T13:52:31.811Z,28.98
2022-11-05T13:54:58.279Z,28.97
2022-11-05T13:57:24.685Z,29.00
2022-11-05T13:59:51.188Z,29.03
2022-11-05T14:02:18.739Z,29.01
2022-11-05T14:04:45.068Z,29.01
2022-11-05T14:07:11.520Z,29.02
2022-11-05T14:09:38.106Z,29.07
2022-11-05T14:12:05.004Z,28.95
2022-11-05T14:14:32.049Z,29.13
2022-11-05T14:17:01.848Z,29.00
2022-11-05T14:19:29.841Z,28.92
2022-11-05T14:22:07.088Z,29.05
2022-11-05T14:24:35.259Z,29.00
2022-11-05T14:27:05.138Z,28.93
2022-11-05T14:29:33.002Z,28.97
2022-11-05T14:32:09.561Z,28.85
2022-11-05T14:34:33.201Z,28.86
2022-11-05T14:36:59.638Z,28.78
2022-11-05T14:39:26.094Z,28.85
2022-11-05T14:41:52.567Z,29.00
2022-11-05T14:44:20.914Z,28.91
2022-11-05T14:46:47.418Z,28.95
2022-11-05T14:49:13.869Z,29.07
2022-11-05T14:51:40.308Z,29.01
2022-11-05T14:54:09.460Z,29.06
2022-11-05T14:56:35.932Z,29.15
2022-11-05T14:59:03.431Z,29.18
2022-11-05T15:01:30.068Z,29.18
2022-11-05T15:03:56.499Z,29.27
2022-11-05T15:06:22.813Z,29.16
2022-11-05T15:08:49.268Z,29.16
2022-11-05T15:11:15.680Z,29.11
2022-11-05T15:13:42.188Z,29.11
2022-11-05T15:16:09.610Z,29.12
2022-11-05T15:18:43.176Z,29.14
2022-11-05T15:21:09.768Z,29.18
2022-11-05T15:23:36.533Z,29.17
2022-11-05T15:26:03.582Z,29.22
2022-11-05T15:28:32.550Z,29.22
2022-11-05T15:30:58.990Z,29.28
2022-11-05T15:33:25.444Z,29.22
2022-11-05T15:35:51.846Z,29.30
2022-11-05T15:38:18.299Z,29.28
2022-11-05T15:40:44.746Z,29.31
2022-11-05T15:43:11.606Z,29.31
2022-11-05T15:45:37.840Z,29.37
2022-11-05T15:48:04.246Z,29.42
2022-11-05T15:50:31.879Z,29.40
2022-11-05T15:53:14.439Z,29.48
2022-11-05T15:55:24.742Z,29.50
2022-11-05T15:57:51.588Z,29.58
2022-11-05T16:00:17.736Z,29.52
2022-11-05T16:02:44.811Z,29.61
2022-11-05T16:05:11.204Z,29.64
2022-11-05T16:07:39.252Z,29.65
2022-11-05T16:10:12.528Z,29.70
2022-11-05T16:12:32.644Z,29.64
2022-11-05T16:14:59.067Z,29.72
2022-11-05T16:17:27.873Z,29.63
2022-11-05T16:19:55.606Z,29.77
2022-11-05T16:22:29.529Z,29.85
2022-11-05T16:24:53.261Z,29.87
2022-11-05T16:30:05.265Z,29.98
2022-11-05T16:32:31.901Z,30.06
2022-11-05T16:34:58.091Z,30.08
2022-11-05T16:37:26.114Z,30.07
2022-11-05T16:39:52.524Z,30.08
2022-11-05T16:42:18.969Z,30.13
2022-11-05T16:44:45.380Z,30.12
2022-11-05T16:47:11.827Z,30.14
2022-11-05T16:49:40.440Z,30.19
2022-11-05T16:52:04.813Z,30.21
2022-11-05T16:54:31.264Z,30.20
2022-11-05T16:56:57.716Z,30.30
2022-11-05T16:59:24.185Z,30.30
2022-11-05T17:01:55.657Z,30.39
2022-11-05T17:04:17.381Z,30.30
2022-11-05T17:06:43.854Z,30.39
2022-11-05T17:09:10.308Z,30.46
2022-11-05T17:11:37.375Z,30.45
2022-11-05T17:14:03.847Z,30.54
2022-11-05T17:16:30.587Z,30.49
2022-11-05T17:18:57.258Z,30.50
2022-11-05T17:21:23.891Z,30.56
2022-11-05T17:23:53.111Z,30.67
2022-11-05T17:26:22.666Z,30.63
2022-11-05T17:28:51.011Z,30.75
2022-11-05T17:31:17.963Z,30.76
2022-11-05T17:33:44.359Z,30.74
2022-11-05T17:36:12.034Z,30.84
2022-11-05T17:38:37.359Z,30.68
2022-11-05T17:41:03.818Z,30.82
2022-11-05T17:43:30.225Z,30.82
2022-11-05T17:46:03.117Z,30.90
2022-11-05T17:48:23.173Z,30.85
2022-11-05T17:50:49.596Z,30.85
2022-11-05T17:53:18.842Z,30.92
2022-11-05T17:55:45.249Z,30.85
2022-11-05T17:58:13.615Z,30.91
2022-11-05T18:00:53.383Z,30.93
2022-11-05T18:03:20.022Z,30.90
2022-11-05T18:05:46.457Z,31.02
2022-11-05T18:08:12.910Z,31.15
2022-11-05T18:10:39.691Z,31.16
2022-11-05T18:13:07.975Z,31.08
2022-11-05T18:15:39.611Z,31.19
2022-11-05T18:18:12.116Z,31.05
2022-11-05T18:20:38.639Z,31.06
2022-11-05T18:23:10.810Z,30.98
2022-11-05T18:25:37.059Z,31.04
2022-11-05T18:28:05.107Z,31.00
2022-11-05T18:30:30.551Z,30.98
2022-11-05T18:32:57.931Z,31.14
2022-11-05T18:35:23.451Z,31.29
2022-11-05T18:37:49.910Z,31.26
2022-11-05T18:40:16.363Z,31.40
2022-11-05T18:42:42.771Z,31.36
2022-11-05T18:45:09.220Z,31.37
2022-11-05T18:47:35.690Z,31.32
2022-11-05T18:50:03.314Z,31.48
2022-11-05T18:52:28.507Z,31.33
2022-11-05T18:54:54.963Z,31.43
2022-11-05T18:57:21.418Z,31.46
2022-11-05T18:59:47.868Z,31.35
2022-11-05T19:02:20.302Z,31.38
2022-11-05T19:05:13.841Z,31.60
2022-11-05T19:07:14.249Z,31.55
2022-11-05T19:09:40.656Z,31.62
2022-11-05T19:12:07.099Z,31.36
2022-11-05T19:14:33.531Z,31.56
2022-11-05T19:17:03.750Z,31.53
2022-11-05T19:19:32.171Z,31.73
2022-11-05T19:21:57.289Z,31.74
2022-11-05T19:24:34.461Z,31.57
2022-11-05T19:27:02.403Z,31.61
2022-11-05T19:29:46.205Z,31.63
2022-11-05T19:32:19.136Z,31.72
2022-11-05T19:34:40.112Z,31.78
2022-11-05T19:38:15.434Z,31.92
2022-11-05T19:39:41.232Z,31.76
2022-11-05T19:42:06.094Z,31.83
2022-11-05T19:44:41.444Z,31.74
2022-11-05T19:47:07.926Z,31.70
2022-11-05T19:49:39.344Z,31.82
2022-11-05T19:52:04.120Z,31.85
2022-11-05T19:54:30.703Z,31.94
2022-11-05T19:56:57.193Z,31.78
2022-11-05T19:59:23.713Z,31.95
2022-11-05T20:01:51.495Z,31.73
2022-11-05T20:04:18.038Z,31.73
2022-11-05T20:06:47.393Z,31.91
2022-11-05T20:09:23.568Z,31.96
2022-11-05T20:11:55.585Z,32.00
2022-11-05T20:14:22.416Z,31.88
2022-11-05T20:16:50.017Z,31.83
2022-11-05T20:19:20.434Z,31.75
2022-11-05T20:21:40.980Z,31.85
2022-11-05T20:24:10.764Z,31.75
2022-11-05T20:26:39.600Z,31.89
2022-11-05T20:29:16.877Z,32.01
2022-11-05T20:34:24.128Z,31.90
2022-11-05T20:36:53.439Z,31.98
2022-11-05T20:39:21.440Z,31.96
2022-11-05T20:41:49.695Z,31.94
2022-11-05T20:44:17.045Z,32.10
2022-11-05T20:46:47.238Z,32.02
2022-11-05T20:49:27.566Z,32.04
2022-11-05T20:52:02.832Z,32.20
2022-11-05T20:54:23.469Z,32.11
2022-11-05T20:56:53.441Z,32.07
2022-11-05T21:02:07.176Z,32.15
2022-11-05T21:04:38.615Z,32.06
2022-11-05T21:07:09.089Z,32.05
2022-11-05T21:09:38.434Z,32.20
2022-11-05T21:12:10.505Z,32.17
2022-11-05T21:14:46.026Z,32.11
2022-11-05T21:19:58.224Z,32.20
2022-11-05T21:22:26.941Z,32.36
2022-11-05T21:24:54.928Z,32.23
2022-11-05T21:27:20.697Z,32.25
2022-11-05T21:29:47.380Z,32.42
2022-11-05T21:32:14.094Z,32.39
2022-11-05T21:37:31.629Z,32.27
2022-11-05T21:39:58.616Z,32.29
2022-11-05T21:42:25.587Z,32.21
2022-11-05T21:44:57.675Z,32.23
2022-11-05T21:47:21.083Z,32.23
2022-11-05T21:49:48.023Z,32.27
2022-11-05T21:52:13.376Z,32.28
2022-11-05T21:54:40.437Z,32.27
2022-11-05T21:57:10.836Z,32.26
2022-11-05T21:59:37.054Z,32.29
2022-11-05T22:02:21.406Z,32.30
2022-11-05T22:04:47.823Z,32.39
2022-11-05T22:07:14.559Z,32.46
2022-11-05T22:09:43.376Z,32.44
2022-11-05T22:12:10.900Z,32.43
2022-11-05T22:14:37.694Z,32.42
2022-11-05T22:17:05.477Z,32.37
2022-11-05T22:19:34.455Z,32.44
2022-11-05T22:22:07.621Z,32.41
2022-11-05T22:24:35.577Z,32.46
2022-11-05T22:27:02.639Z,32.46
2022-11-05T22:29:32.086Z,32.43
2022-11-05T22:31:56.244Z,32.53
2022-11-05T22:34:22.687Z,32.50
2022-11-05T22:36:50.594Z,32.48
2022-11-05T22:39:37.371Z,32.62
2022-11-05T22:42:08.486Z,32.59
2022-11-05T22:44:37.930Z,32.61
2022-11-05T22:47:03.128Z,32.56
2022-11-05T22:49:29.613Z,32.62
2022-11-05T22:51:56.078Z,32.59
2022-11-05T22:54:22.909Z,32.59
2022-11-05T22:56:55.395Z,32.68
2022-11-05T22:59:53.011Z,32.73
2022-11-05T23:01:50.769Z,32.64
2022-11-05T23:04:17.692Z,32.63
2022-11-05T23:06:46.872Z,32.65
2022-11-05T23:09:18.303Z,32.67
2022-11-05T23:11:41.420Z,32.66
2022-11-05T23:14:14.095Z,32.89
2022-11-05T23:16:46.416Z,32.68
2022-11-05T23:19:11.824Z,32.84
2022-11-05T23:21:42.766Z,32.85
2022-11-05T23:24:11.111Z,32.86
2022-11-05T23:26:39.133Z,32.75
2022-11-05T23:29:06.053Z,32.73
2022-11-05T23:31:39.175Z,32.82
2022-11-05T23:34:07.066Z,32.97
2022-11-05T23:36:36.524Z,32.83
2022-11-05T23:39:09.257Z,33.00
2022-11-05T23:41:41.988Z,32.89
2022-11-05T23:44:08.594Z,32.91
2022-11-05T23:46:35.106Z,32.83
2022-11-05T23:49:01.903Z,32.87
2022-11-05T23:51:32.155Z,32.81
2022-11-05T23:54:03.382Z,32.81
2022-11-05T23:56:32.630Z,32.84
2022-11-05T23:58:59.481Z,32.92
